Time;durP1;ratioP1;P1;durP2;ratioP2;P2;SDS_P1;SDS_P2;PMS_P1;PMS_P2;Temp;Humidity;BMP_temperature;BMP_pressure;BME280_temperature;BME280_humidity;BME280_pressure;Samples;Min_cycle;Max_cycle;Signal;HPM_P1;HPM_P2
2022/12/30 00:00:39;;;;;;;35.30;18.60;;;1.30;99.90;;;;;;4127517;28;20355;-58
2022/12/30 00:02:40;;;;;;;37.00;20.23;;;1.30;99.90;;;;;;4126953;28;20323;-58
2022/12/30 00:04:41;;;;;;;35.10;19.47;;;1.30;99.90;;;;;;4127738;28;20280;-54
2022/12/30 00:06:43;;;;;;;32.93;17.67;;;1.30;99.90;;;;;;4127850;28;20794;-57
2022/12/30 00:08:47;;;;;;;30.27;18.13;;;1.30;99.90;;;;;;4130289;28;20319;-56
2022/12/30 00:10:48;;;;;;;35.87;18.90;;;1.30;99.90;;;;;;4130315;28;20303;-54
2022/12/30 00:34:25;;;;;;;39.60;19.10;;;1.50;99.90;;;;;;4129914;28;20069;-58
2022/12/30 00:36:27;;;;;;;37.23;19.97;;;1.60;99.90;;;;;;4130468;28;20745;-59
2022/12/30 00:38:28;;;;;;;36.00;20.63;;;1.60;99.90;;;;;;4129236;28;20280;-57
2022/12/30 00:40:30;;;;;;;36.83;20.10;;;1.60;99.90;;;;;;4130266;28;20276;-58
2022/12/30 00:44:50;;;;;;;40.00;21.57;;;1.60;99.90;;;;;;4122312;28;20339;-55
2022/12/30 00:46:52;;;;;;;35.37;20.27;;;1.70;99.90;;;;;;4113719;28;20281;-57
2022/12/30 00:56:13;;;;;;;32.80;18.30;;;1.70;99.90;;;;;;4113775;28;20823;-64
2022/12/30 00:58:14;;;;;;;32.93;17.43;;;1.70;99.90;;;;;;4099095;28;20355;-59
2022/12/30 01:00:16;;;;;;;38.83;23.20;;;1.80;99.90;;;;;;4113750;28;20337;-59
2022/12/30 01:02:17;;;;;;;39.07;19.57;;;1.80;99.90;;;;;;4114369;28;20280;-58
2022/12/30 01:04:18;;;;;;;37.17;19.30;;;1.80;99.90;;;;;;4113073;28;20264;-57
2022/12/30 01:06:20;;;;;;;39.73;18.57;;;1.70;99.90;;;;;;4113781;28;20380;-58
2022/12/30 01:08:21;;;;;;;36.37;19.93;;;1.70;99.90;;;;;;4113167;28;20269;-60
2022/12/30 01:10:22;;;;;;;32.13;17.87;;;1.70;99.90;;;;;;4113854;28;20331;-62
2022/12/30 01:12:24;;;;;;;38.67;18.73;;;1.70;99.90;;;;;;4112755;28;20391;-59
2022/12/30 01:14:25;;;;;;;32.47;17.33;;;1.70;99.90;;;;;;4121052;28;20284;-57
2022/12/30 01:16:26;;;;;;;35.00;17.97;;;1.70;99.90;;;;;;4113139;28;20256;-55
2022/12/30 01:18:28;;;;;;;34.70;17.77;;;1.70;99.90;;;;;;4117951;28;20693;-59
2022/12/30 01:20:29;;;;;;;31.80;18.30;;;1.70;99.90;;;;;;4112294;28;20347;-62
2022/12/30 01:22:32;;;;;;;33.37;18.33;;;1.80;99.90;;;;;;4129933;28;20614;-59
2022/12/30 01:24:33;;;;;;;35.00;19.13;;;1.80;99.90;;;;;;4128744;28;20268;-58
2022/12/30 01:26:34;;;;;;;32.17;17.17;;;1.80;99.90;;;;;;4113653;28;20324;-62
2022/12/30 01:28:36;;;;;;;32.30;19.13;;;1.80;99.90;;;;;;4113384;28;20753;-59
2022/12/30 01:30:37;;;;;;;33.33;18.13;;;1.80;99.90;;;;;;4113532;28;20277;-59
2022/12/30 01:32:39;;;;;;;37.00;19.20;;;1.80;99.90;;;;;;4114112;28;20355;-59
2022/12/30 01:34:41;;;;;;;38.60;19.50;;;1.80;99.90;;;;;;4112594;28;20904;-58
2022/12/30 01:36:42;;;;;;;37.53;19.73;;;1.70;99.90;;;;;;4114195;28;20351;-60
2022/12/30 01:38:43;;;;;;;33.87;18.60;;;1.70;99.90;;;;;;4112639;28;20281;-56
2022/12/30 01:40:44;;;;;;;31.67;17.53;;;1.70;99.90;;;;;;4114206;28;20819;-60
2022/12/30 01:42:46;;;;;;;36.17;18.93;;;1.80;99.90;;;;;;4112616;28;20285;-59
2022/12/30 01:45:42;;;;;;;32.40;17.90;;;1.70;99.90;;;;;;4114676;28;20265;-62
2022/12/30 01:47:56;;;;;;;34.70;19.50;;;1.70;99.90;;;;;;4063534;29;20279;-57
2022/12/30 01:50:09;;;;;;;41.17;19.93;;;1.70;99.90;;;;;;4096386;28;20348;-56
2022/12/30 01:52:12;;;;;;;36.70;19.37;;;1.70;99.90;;;;;;4112259;28;20316;-61
2022/12/30 01:54:13;;;;;;;37.00;19.73;;;1.70;99.90;;;;;;4113091;28;20265;-57
2022/12/30 01:56:21;;;;;;;35.60;20.03;;;1.70;99.90;;;;;;4121323;28;20843;-59
2022/12/30 01:58:27;;;;;;;39.97;20.97;;;1.70;99.90;;;;;;4121564;28;20280;-59
2022/12/30 02:00:28;;;;;;;33.37;19.13;;;1.70;99.90;;;;;;4128869;28;20318;-56
2022/12/30 02:02:30;;;;;;;37.13;20.67;;;1.60;99.90;;;;;;4120916;28;20276;-54
2022/12/30 02:04:33;;;;;;;35.00;18.87;;;1.70;99.90;;;;;;4111944;28;20265;-59
2022/12/30 02:06:58;;;;;;;37.50;21.33;;;1.60;99.90;;;;;;4113424;28;20264;-65
2022/12/30 02:08:59;;;;;;;39.37;19.67;;;1.60;99.90;;;;;;4092509;28;20316;-58
2022/12/30 02:11:03;;;;;;;39.27;20.83;;;1.60;99.90;;;;;;4112907;28;20327;-55
2022/12/30 02:13:04;;;;;;;36.07;19.33;;;1.60;99.90;;;;;;4112180;28;20300;-59
2022/12/30 02:15:06;;;;;;;34.30;18.77;;;1.60;99.90;;;;;;4114090;28;20276;-59
2022/12/30 02:17:35;;;;;;;39.40;20.30;;;1.60;99.90;;;;;;4111448;28;20669;-59
2022/12/30 02:19:58;;;;;;;34.57;19.63;;;1.60;99.90;;;;;;4112765;28;20702;-59
2022/12/30 02:22:17;;;;;;;37.33;20.07;;;1.60;99.90;;;;;;4112366;28;20313;-55
2022/12/30 02:24:22;;;;;;;35.27;18.67;;;1.60;99.90;;;;;;4113488;28;20261;-59
2022/12/30 02:26:50;;;;;;;40.50;21.60;;;1.60;99.90;;;;;;4111803;28;20276;-59
2022/12/30 02:29:06;;;;;;;32.93;19.63;;;1.60;99.90;;;;;;4112632;28;20276;-55
2022/12/30 02:31:31;;;;;;;34.13;20.33;;;1.60;99.90;;;;;;4118100;28;20367;-59
2022/12/30 02:34:06;;;;;;;37.57;19.40;;;1.60;99.90;;;;;;4112876;28;20351;-56
2022/12/30 02:36:16;;;;;;;38.47;20.60;;;1.60;99.90;;;;;;4113142;28;20606;-62
2022/12/30 02:38:23;;;;;;;38.43;20.20;;;1.70;99.90;;;;;;4112213;28;20269;-58
2022/12/30 02:44:36;;;;;;;38.53;21.23;;;1.70;99.90;;;;;;4113311;28;20280;-58
2022/12/30 02:45:40;;;;;;;38.10;21.33;;;1.70;99.90;;;;;;4114500;28;20077;-57
2022/12/30 02:47:51;;;;;;;37.87;20.60;;;1.70;99.90;;;;;;4128265;28;20350;-65
2022/12/30 02:52:14;;;;;;;38.40;20.57;;;1.70;99.90;;;;;;4128258;28;19960;-56
2022/12/30 02:54:15;;;;;;;39.30;20.47;;;1.70;99.90;;;;;;4129381;28;20626;-61
2022/12/30 02:56:17;;;;;;;41.73;21.97;;;1.70;99.90;;;;;;4127975;28;20268;-64
2022/12/30 02:58:18;;;;;;;39.47;20.20;;;1.70;99.90;;;;;;4129174;28;20323;-58
2022/12/30 03:05:34;;;;;;;34.47;20.23;;;1.70;99.90;;;;;;4128097;28;20326;-61
2022/12/30 03:07:45;;;;;;;36.57;19.60;;;1.80;99.90;;;;;;4127522;28;20280;-61
2022/12/30 03:13:04;;;;;;;33.63;18.70;;;1.90;99.90;;;;;;4128537;28;21272;-60
2022/12/30 03:15:14;;;;;;;34.17;20.03;;;1.90;99.90;;;;;;4124881;28;20338;-58
2022/12/30 03:17:22;;;;;;;40.45;21.63;;;1.90;99.90;;;;;;4128004;28;20339;-61
2022/12/30 03:19:28;;;;;;;37.43;20.30;;;1.80;99.90;;;;;;4129066;28;20553;-63
2022/12/30 03:21:33;;;;;;;39.93;20.90;;;1.80;99.90;;;;;;4113653;28;20422;-63
2022/12/30 03:28:26;;;;;;;38.97;20.33;;;1.70;99.90;;;;;;4112896;28;20645;-59
2022/12/30 03:30:28;;;;;;;39.00;20.93;;;1.70;99.90;;;;;;4111717;28;20257;-62
2022/12/30 03:32:29;;;;;;;40.17;20.60;;;1.60;99.90;;;;;;4112923;28;20669;-63
2022/12/30 03:34:31;;;;;;;39.60;20.80;;;1.60;99.90;;;;;;4111501;28;20741;-55
2022/12/30 03:36:37;;;;;;;39.43;20.77;;;1.60;99.90;;;;;;4112203;28;20280;-59
2022/12/30 03:38:43;;;;;;;38.43;20.83;;;1.50;99.90;;;;;;4112042;28;20718;-59
2022/12/30 03:40:47;;;;;;;38.67;21.53;;;1.50;99.90;;;;;;4112149;28;20669;-61
2022/12/30 03:42:51;;;;;;;36.30;20.57;;;1.50;99.90;;;;;;4115169;28;20255;-58
2022/12/30 03:44:52;;;;;;;41.17;22.57;;;1.40;99.90;;;;;;4126301;28;20276;-63
2022/12/30 03:46:53;;;;;;;41.30;21.10;;;1.40;99.90;;;;;;4103527;28;20336;-61
2022/12/30 03:48:54;;;;;;;40.00;20.90;;;1.40;99.90;;;;;;4114914;28;20276;-61
2022/12/30 03:50:55;;;;;;;39.73;21.03;;;1.40;99.90;;;;;;4114892;28;20269;-57
2022/12/30 03:52:57;;;;;;;37.60;19.90;;;1.40;99.90;;;;;;4113837;28;20296;-58
2022/12/30 03:54:58;;;;;;;42.67;22.37;;;1.30;99.90;;;;;;4115441;28;20781;-59
2022/12/30 03:57:02;;;;;;;43.03;23.90;;;1.30;99.90;;;;;;4114199;28;20749;-61
2022/12/30 03:59:03;;;;;;;38.30;21.53;;;1.30;99.90;;;;;;4115699;28;20340;-63
2022/12/30 04:01:04;;;;;;;41.23;22.43;;;1.30;99.90;;;;;;4119564;28;20267;-58
2022/12/30 04:03:05;;;;;;;44.43;23.67;;;1.30;99.90;;;;;;4131750;28;20272;-59
2022/12/30 04:05:08;;;;;;;42.63;22.63;;;1.30;99.90;;;;;;4130605;28;20675;-58
2022/12/30 04:07:09;;;;;;;43.80;23.43;;;1.30;99.90;;;;;;4131658;28;20264;-58
2022/12/30 04:09:10;;;;;;;41.17;22.47;;;1.30;99.90;;;;;;4130494;28;20272;-57
2022/12/30 04:11:11;;;;;;;42.03;23.17;;;1.30;99.90;;;;;;4130788;28;20307;-58
2022/12/30 04:13:12;;;;;;;44.07;22.67;;;1.30;99.90;;;;;;4130621;28;20300;-63
2022/12/30 04:15:13;;;;;;;42.00;21.93;;;1.30;99.90;;;;;;4130295;28;20711;-61
2022/12/30 04:17:15;;;;;;;41.50;22.33;;;1.30;99.90;;;;;;4130515;28;20323;-64
2022/12/30 04:19:16;;;;;;;42.33;21.67;;;1.30;99.90;;;;;;4123227;28;20769;-60
2022/12/30 04:21:17;;;;;;;42.00;23.10;;;1.30;99.90;;;;;;4114226;28;20273;-57
2022/12/30 04:23:18;;;;;;;42.83;22.70;;;1.30;99.90;;;;;;4114295;28;20316;-55
2022/12/30 04:25:19;;;;;;;41.47;23.03;;;1.30;99.90;;;;;;4121235;28;20268;-60
2022/12/30 04:27:20;;;;;;;41.17;23.30;;;1.20;99.90;;;;;;4129919;28;20791;-59
2022/12/30 04:29:21;;;;;;;48.10;23.07;;;1.30;99.90;;;;;;4130465;28;20272;-64
2022/12/30 04:31:23;;;;;;;42.50;22.50;;;1.30;99.90;;;;;;4119330;28;20735;-58
2022/12/30 04:33:24;;;;;;;44.03;23.30;;;1.30;99.90;;;;;;4115153;28;20289;-61
2022/12/30 04:35:26;;;;;;;42.67;23.37;;;1.30;99.90;;;;;;4096274;29;20332;-60
2022/12/30 04:37:27;;;;;;;49.93;23.03;;;1.30;99.90;;;;;;4115185;28;20335;-61
2022/12/30 04:39:28;;;;;;;43.47;22.50;;;1.30;99.90;;;;;;4113662;28;20272;-57
2022/12/30 04:41:29;;;;;;;46.20;24.40;;;1.30;99.90;;;;;;4114890;28;20347;-59
2022/12/30 04:43:31;;;;;;;45.57;24.23;;;1.40;99.90;;;;;;4122728;28;20319;-63
2022/12/30 04:45:32;;;;;;;45.67;25.07;;;1.40;99.90;;;;;;4130763;28;20688;-58
2022/12/30 04:47:33;;;;;;;47.17;25.50;;;1.30;99.90;;;;;;4129802;28;20264;-57
2022/12/30 04:49:34;;;;;;;44.17;24.13;;;1.30;99.90;;;;;;4129822;28;20346;-59
2022/12/30 04:51:35;;;;;;;43.97;24.37;;;1.30;99.90;;;;;;4129953;28;20276;-62
2022/12/30 04:53:37;;;;;;;51.60;24.67;;;1.30;99.90;;;;;;4128208;28;20303;-58
2022/12/30 04:55:38;;;;;;;40.53;23.80;;;1.30;99.90;;;;;;4131086;28;20303;-58
2022/12/30 04:57:39;;;;;;;46.23;24.30;;;1.30;99.90;;;;;;4129332;28;20365;-56
2022/12/30 04:59:40;;;;;;;42.70;24.10;;;1.30;99.90;;;;;;4130498;28;20292;-57
2022/12/30 05:01:41;;;;;;;48.87;26.03;;;1.30;99.90;;;;;;4129516;28;20283;-58
2022/12/30 05:03:43;;;;;;;43.97;23.40;;;1.30;99.90;;;;;;4130915;28;20807;-62
2022/12/30 05:05:44;;;;;;;45.57;24.77;;;1.30;99.90;;;;;;4129203;28;20280;-63
2022/12/30 05:07:45;;;;;;;43.77;23.90;;;1.30;99.90;;;;;;4130658;28;20331;-59
2022/12/30 05:09:46;;;;;;;49.10;24.53;;;1.20;99.90;;;;;;4124953;28;20273;-63
2022/12/30 05:11:47;;;;;;;49.33;24.97;;;1.20;99.90;;;;;;4122694;28;20284;-62
2022/12/30 05:13:48;;;;;;;47.87;26.03;;;1.10;99.90;;;;;;4128974;28;20292;-62
2022/12/30 05:15:49;;;;;;;70.13;35.63;;;1.10;99.90;;;;;;4124284;28;20285;-65
2022/12/30 05:17:50;;;;;;;48.27;25.43;;;1.10;99.90;;;;;;4113419;28;20256;-63
2022/12/30 05:19:51;;;;;;;49.33;26.57;;;1.00;99.90;;;;;;4112883;28;20281;-62
2022/12/30 05:21:53;;;;;;;55.90;28.57;;;1.00;99.90;;;;;;4113511;28;20339;-60
2022/12/30 05:26:15;;;;;;;52.70;25.77;;;1.00;99.90;;;;;;4119072;28;20700;-63
2022/12/30 05:28:16;;;;;;;53.10;26.73;;;1.00;99.90;;;;;;4129282;28;20725;-61
2022/12/30 05:30:18;;;;;;;58.57;26.20;;;1.00;99.90;;;;;;4112959;28;20339;-61
2022/12/30 05:32:19;;;;;;;45.47;25.53;;;1.10;99.90;;;;;;4129035;28;20256;-61
2022/12/30 05:34:20;;;;;;;45.50;24.93;;;1.10;99.90;;;;;;4130355;28;20310;-58
2022/12/30 05:36:21;;;;;;;51.47;25.37;;;1.10;99.90;;;;;;4128728;28;20656;-62
2022/12/30 05:38:22;;;;;;;52.30;25.67;;;1.20;99.90;;;;;;4120981;28;20792;-56
2022/12/30 05:40:23;;;;;;;48.00;25.97;;;1.20;99.90;;;;;;4112163;28;20273;-64
2022/12/30 05:42:25;;;;;;;48.93;26.13;;;1.20;99.90;;;;;;4114233;28;20272;-58
2022/12/30 05:44:26;;;;;;;48.53;25.47;;;1.10;99.90;;;;;;4112947;28;20331;-51
2022/12/30 05:46:27;;;;;;;48.30;26.60;;;1.20;99.90;;;;;;4114119;28;20341;-64
2022/12/30 05:48:28;;;;;;;49.83;27.27;;;1.20;99.90;;;;;;4112084;28;20681;-55
2022/12/30 05:50:29;;;;;;;50.83;26.80;;;1.10;99.90;;;;;;4113409;28;20261;-57
2022/12/30 05:52:30;;;;;;;47.37;25.07;;;1.10;99.90;;;;;;4114171;28;20359;-58
2022/12/30 05:54:32;;;;;;;47.07;26.63;;;1.10;99.90;;;;;;4112753;28;20297;-58
2022/12/30 05:56:33;;;;;;;43.90;24.57;;;1.10;99.90;;;;;;4112453;28;20261;-64
2022/12/30 05:58:34;;;;;;;49.93;24.93;;;1.20;99.90;;;;;;4113159;28;20292;-58
2022/12/30 06:00:35;;;;;;;47.27;25.77;;;1.20;99.90;;;;;;4113591;28;20269;-59
2022/12/30 06:02:36;;;;;;;50.63;26.13;;;1.20;99.90;;;;;;4095340;29;20276;-60
2022/12/30 06:04:38;;;;;;;45.47;25.00;;;1.20;99.90;;;;;;4112646;28;20265;-58
2022/12/30 06:06:39;;;;;;;48.37;26.53;;;1.20;99.90;;;;;;4112103;28;20712;-65
2022/12/30 06:08:40;;;;;;;50.57;26.97;;;1.20;99.90;;;;;;4117556;28;20268;-63
2022/12/30 06:10:41;;;;;;;49.00;26.33;;;1.20;99.90;;;;;;4127755;28;20268;-60
2022/12/30 06:12:42;;;;;;;50.90;25.97;;;1.30;99.90;;;;;;4129304;28;20559;-59
2022/12/30 06:14:43;;;;;;;48.27;27.23;;;1.30;99.90;;;;;;4128634;28;20319;-64
2022/12/30 06:16:44;;;;;;;46.00;25.87;;;1.30;99.90;;;;;;4128875;28;20629;-65
2022/12/30 06:18:46;;;;;;;51.83;27.13;;;1.40;99.90;;;;;;4128004;28;20306;-60
2022/12/30 06:20:48;;;;;;;59.73;32.63;;;1.30;99.90;;;;;;4111714;28;20293;-60
2022/12/30 06:22:50;;;;;;;48.03;26.67;;;1.40;99.90;;;;;;4128137;28;20260;-65
2022/12/30 06:24:51;;;;;;;46.37;26.37;;;1.40;99.90;;;;;;4126445;28;20756;-57
2022/12/30 06:26:52;;;;;;;49.97;26.07;;;1.30;99.90;;;;;;4128620;28;20272;-59
2022/12/30 06:28:53;;;;;;;49.20;28.23;;;1.30;99.90;;;;;;4126173;28;20292;-60
2022/12/30 06:30:54;;;;;;;53.60;27.30;;;1.30;99.90;;;;;;4129268;28;20252;-56
2022/12/30 06:32:56;;;;;;;44.87;25.07;;;1.30;99.90;;;;;;4127190;28;20669;-63
2022/12/30 06:34:57;;;;;;;41.37;24.53;;;1.30;99.90;;;;;;4129423;28;20339;-59
2022/12/30 06:36:58;;;;;;;44.53;24.87;;;1.30;99.90;;;;;;4127222;28;20321;-60
2022/12/30 06:38:59;;;;;;;42.00;23.93;;;1.30;99.90;;;;;;4126981;28;20347;-65
2022/12/30 06:41:01;;;;;;;50.57;26.70;;;1.30;99.90;;;;;;4128104;28;20276;-60
2022/12/30 06:43:02;;;;;;;51.53;27.57;;;1.30;99.90;;;;;;4111802;28;20630;-61
2022/12/30 06:45:04;;;;;;;52.57;29.10;;;1.30;99.90;;;;;;4128259;28;20668;-57
2022/12/30 06:47:05;;;;;;;51.43;29.63;;;1.30;99.90;;;;;;4128496;28;20292;-60
2022/12/30 06:49:06;;;;;;;52.77;28.30;;;1.30;99.90;;;;;;4128323;28;20831;-60
2022/12/30 06:51:07;;;;;;;51.57;28.27;;;1.20;99.90;;;;;;4128113;28;20416;-59
2022/12/30 06:53:08;;;;;;;52.30;27.90;;;1.20;99.90;;;;;;4126546;28;20975;-59
2022/12/30 06:55:10;;;;;;;47.80;26.47;;;1.20;99.90;;;;;;4128169;28;20807;-59
2022/12/30 06:57:11;;;;;;;51.43;27.37;;;1.30;99.90;;;;;;4126414;28;20257;-59
2022/12/30 06:59:12;;;;;;;52.20;28.73;;;1.30;99.90;;;;;;4128116;28;20319;-65
2022/12/30 07:01:13;;;;;;;48.00;26.20;;;1.30;99.90;;;;;;4128719;28;20306;-61
2022/12/30 07:03:14;;;;;;;44.43;24.13;;;1.40;99.90;;;;;;4127127;28;20327;-61
2022/12/30 07:05:15;;;;;;;45.63;26.27;;;1.40;99.90;;;;;;4128920;28;20260;-58
2022/12/30 07:07:17;;;;;;;45.30;26.07;;;1.40;99.90;;;;;;4125536;28;20280;-58
2022/12/30 07:09:18;;;;;;;46.00;25.87;;;1.50;99.90;;;;;;4128499;28;20322;-61
2022/12/30 07:11:19;;;;;;;56.63;29.47;;;1.50;99.90;;;;;;4116112;28;20276;-63
2022/12/30 07:13:20;;;;;;;53.47;28.23;;;1.50;99.90;;;;;;4112704;28;20293;-60
2022/12/30 07:15:21;;;;;;;50.03;27.57;;;1.50;99.90;;;;;;4112168;28;20272;-57
2022/12/30 07:17:23;;;;;;;50.70;29.13;;;1.60;99.90;;;;;;4119386;28;20318;-61
2022/12/30 07:19:25;;;;;;;45.50;26.37;;;1.60;99.90;;;;;;4130269;28;20830;-57
2022/12/30 07:21:26;;;;;;;49.27;26.80;;;1.60;99.90;;;;;;4131525;28;20338;-62
2022/12/30 07:23:27;;;;;;;47.13;25.70;;;1.70;99.90;;;;;;4129082;28;20819;-56
2022/12/30 07:25:28;;;;;;;46.70;26.30;;;1.70;99.90;;;;;;4131681;28;20268;-60
2022/12/30 07:27:29;;;;;;;48.20;25.43;;;1.80;99.90;;;;;;4127360;28;20744;-63
2022/12/30 07:29:30;;;;;;;47.13;24.63;;;1.80;99.90;;;;;;4129361;28;20346;-61
2022/12/30 07:31:32;;;;;;;44.03;23.90;;;1.70;99.90;;;;;;4131107;28;20264;-57
2022/12/30 07:33:33;;;;;;;44.30;24.50;;;1.80;99.90;;;;;;4130452;28;20291;-57
2022/12/30 07:35:34;;;;;;;44.73;24.60;;;1.70;99.90;;;;;;4131593;28;20264;-62
2022/12/30 07:37:37;;;;;;;46.70;23.57;;;1.80;99.90;;;;;;4129985;28;20617;-60
2022/12/30 07:39:38;;;;;;;49.70;25.13;;;1.70;99.90;;;;;;4120811;28;20272;-58
2022/12/30 07:41:39;;;;;;;41.30;22.73;;;1.80;99.90;;;;;;4114691;28;20331;-58
2022/12/30 07:43:40;;;;;;;39.47;22.93;;;1.80;99.90;;;;;;4115688;28;20844;-59
2022/12/30 07:45:42;;;;;;;43.47;24.53;;;1.80;99.90;;;;;;4114092;28;20318;-62
2022/12/30 07:47:43;;;;;;;44.47;25.47;;;1.80;99.90;;;;;;4115231;28;20277;-58
2022/12/30 07:49:44;;;;;;;42.53;23.47;;;1.90;99.90;;;;;;4113752;28;20335;-60
2022/12/30 07:51:45;;;;;;;44.70;24.83;;;1.90;99.90;;;;;;4115237;28;20273;-58
2022/12/30 07:53:46;;;;;;;39.00;23.20;;;1.90;99.90;;;;;;4120713;28;20358;-58
2022/12/30 07:55:47;;;;;;;44.03;26.10;;;2.00;99.90;;;;;;4131005;28;20744;-61
2022/12/30 07:57:48;;;;;;;47.40;25.90;;;2.00;99.90;;;;;;4129752;28;20252;-58
2022/12/30 07:59:51;;;;;;;40.27;23.70;;;2.10;99.90;;;;;;4130193;28;20350;-58
2022/12/30 08:01:52;;;;;;;61.90;34.00;;;2.10;99.90;;;;;;4128437;28;20828;-56
2022/12/30 08:03:53;;;;;;;49.03;24.30;;;2.10;99.90;;;;;;4129206;28;20322;-63
2022/12/30 08:05:54;;;;;;;38.13;21.33;;;2.10;99.90;;;;;;4129882;28;20656;-62
2022/12/30 08:07:55;;;;;;;38.13;21.53;;;2.10;99.90;;;;;;4130075;28;20322;-63
2022/12/30 08:09:56;;;;;;;46.13;24.20;;;2.10;99.90;;;;;;4123454;28;20331;-62
2022/12/30 08:11:57;;;;;;;40.37;24.60;;;2.00;99.90;;;;;;4125481;28;20284;-64
2022/12/30 08:13:59;;;;;;;42.23;24.03;;;2.00;99.90;;;;;;4130739;28;20351;-64
2022/12/30 08:16:08;;;;;;;40.97;22.67;;;2.10;99.90;;;;;;4130064;28;20256;-58
2022/12/30 08:18:09;;;;;;;42.50;22.80;;;2.10;99.90;;;;;;4126793;28;20331;-59
2022/12/30 08:20:10;;;;;;;49.17;27.60;;;2.00;99.90;;;;;;4112965;28;20764;-53
2022/12/30 08:22:11;;;;;;;47.93;27.37;;;2.00;99.90;;;;;;4114731;28;20321;-65
2022/12/30 08:24:12;;;;;;;56.30;31.57;;;2.00;99.90;;;;;;4113036;28;20719;-63
2022/12/30 08:26:18;;;;;;;41.97;25.33;;;1.90;99.90;;;;;;4113931;28;20666;-58
2022/12/30 08:28:19;;;;;;;46.40;26.10;;;1.90;99.90;;;;;;4113599;28;20602;-60
2022/12/30 08:30:20;;;;;;;42.77;24.87;;;1.90;99.90;;;;;;4113596;28;20331;-61
2022/12/30 08:32:21;;;;;;;47.17;26.53;;;1.80;99.90;;;;;;4114043;28;20328;-61
2022/12/30 08:34:23;;;;;;;47.83;25.67;;;1.80;99.90;;;;;;4114012;28;20642;-61
2022/12/30 08:36:27;;;;;;;45.83;25.10;;;1.80;99.90;;;;;;4115915;28;20399;-59
2022/12/30 08:38:29;;;;;;;46.87;25.80;;;1.80;99.90;;;;;;4112943;28;20331;-59
2022/12/30 08:40:33;;;;;;;45.43;24.37;;;1.80;99.90;;;;;;4114423;28;20327;-60
2022/12/30 08:42:35;;;;;;;50.63;28.77;;;1.80;99.90;;;;;;4113041;28;20268;-61
2022/12/30 08:44:36;;;;;;;57.13;31.97;;;1.80;99.90;;;;;;4114423;28;20306;-61
2022/12/30 08:46:39;;;;;;;57.60;32.93;;;1.80;99.90;;;;;;4113431;28;20272;-59
2022/12/30 08:48:40;;;;;;;68.27;39.80;;;1.90;99.90;;;;;;4114255;28;20739;-60
2022/12/30 08:50:41;;;;;;;68.03;40.10;;;1.90;99.90;;;;;;4112145;28;20273;-62
2022/12/30 08:52:42;;;;;;;64.93;40.13;;;1.90;99.90;;;;;;4118861;28;20330;-60
2022/12/30 08:54:43;;;;;;;67.33;41.27;;;1.90;99.90;;;;;;4127581;28;20350;-57
2022/12/30 08:56:48;;;;;;;74.57;45.73;;;1.90;99.90;;;;;;4129271;28;20400;-61
2022/12/30 08:58:50;;;;;;;73.83;42.77;;;1.90;99.90;;;;;;4118430;28;20898;-63
2022/12/30 09:00:51;;;;;;;69.57;43.10;;;2.00;99.90;;;;;;4113591;28;20276;-61
2022/12/30 09:02:52;;;;;;;69.00;39.40;;;2.10;99.90;;;;;;4113298;28;20708;-63
2022/12/30 09:04:53;;;;;;;59.50;36.83;;;2.20;99.90;;;;;;4112941;28;20284;-61
2022/12/30 09:06:55;;;;;;;61.47;36.70;;;2.20;99.90;;;;;;4118277;28;20686;-60
2022/12/30 09:08:57;;;;;;;55.43;34.37;;;2.30;99.90;;;;;;4127839;28;20264;-57
2022/12/30 09:11:01;;;;;;;56.13;31.83;;;2.30;99.90;;;;;;4129623;28;20283;-61
2022/12/30 09:13:02;;;;;;;54.43;33.17;;;2.30;99.90;;;;;;4127446;28;20334;-57
2022/12/30 09:15:04;;;;;;;59.87;33.53;;;2.30;99.90;;;;;;4122982;28;20281;-64
2022/12/30 09:17:05;;;;;;;68.43;35.03;;;2.30;99.90;;;;;;4104297;28;20273;-64
2022/12/30 09:19:06;;;;;;;55.13;31.43;;;2.30;99.90;;;;;;4116925;28;20266;-64
2022/12/30 09:21:07;;;;;;;55.47;29.87;;;2.30;99.90;;;;;;4112081;28;20668;-62
2022/12/30 09:23:08;;;;;;;52.73;28.60;;;2.30;99.90;;;;;;4113889;28;20292;-62
2022/12/30 09:25:09;;;;;;;51.27;29.37;;;2.40;99.90;;;;;;4112540;28;20265;-58
2022/12/30 09:27:11;;;;;;;54.67;30.53;;;2.50;99.90;;;;;;4113745;28;20265;-61
2022/12/30 09:29:15;;;;;;;58.47;30.53;;;2.50;99.90;;;;;;4112493;28;20764;-59
2022/12/30 09:31:16;;;;;;;54.13;31.13;;;2.50;99.90;;;;;;4113106;28;20349;-62
2022/12/30 09:33:17;;;;;;;52.77;29.30;;;2.60;99.90;;;;;;4094957;29;20277;-60
2022/12/30 09:35:19;;;;;;;49.03;28.37;;;2.50;99.90;;;;;;4112629;28;20328;-60
2022/12/30 09:37:20;;;;;;;58.60;31.37;;;2.40;99.90;;;;;;4127461;28;20304;-64
2022/12/30 09:39:30;;;;;;;56.20;31.63;;;2.30;99.90;;;;;;4128538;28;20276;-60
2022/12/30 09:44:46;;;;;;;48.33;29.65;;;2.40;99.90;;;;;;4043140;29;20101;-61
2022/12/30 09:46:58;;;;;;;53.40;30.33;;;2.40;99.90;;;;;;4032153;29;20431;-61
2022/12/30 09:49:02;;;;;;;52.37;29.53;;;2.40;99.90;;;;;;4058279;28;20348;-62
2022/12/30 09:51:09;;;;;;;52.40;26.07;;;2.40;99.90;;;;;;4094890;29;20277;-58
2022/12/30 09:53:10;;;;;;;50.60;28.57;;;2.40;99.90;;;;;;4113459;28;20324;-60
2022/12/30 09:55:23;;;;;;;52.07;28.90;;;2.40;99.90;;;;;;4112218;28;20264;-62
2022/12/30 09:57:31;;;;;;;49.03;27.53;;;2.50;99.90;;;;;;4112953;28;20319;-61
2022/12/30 09:59:32;;;;;;;46.27;26.20;;;2.50;99.90;;;;;;4112690;28;20295;-63
2022/12/30 10:01:36;;;;;;;48.23;25.63;;;2.50;99.90;;;;;;4117663;28;20322;-57
2022/12/30 10:03:38;;;;;;;49.60;27.97;;;2.50;99.90;;;;;;4128548;28;20260;-63
2022/12/30 10:05:51;;;;;;;49.63;27.47;;;2.60;99.90;;;;;;4128718;28;20268;-59
2022/12/30 10:08:04;;;;;;;46.50;26.57;;;2.50;99.90;;;;;;4128318;28;20248;-60
2022/12/30 10:10:36;;;;;;;43.17;23.73;;;2.60;99.90;;;;;;4128796;28;20608;-58
2022/12/30 10:12:49;;;;;;;35.83;21.20;;;2.50;99.90;;;;;;4097973;28;20272;-62
2022/12/30 10:14:59;;;;;;;45.97;24.83;;;2.50;99.90;;;;;;4129136;28;20353;-59
2022/12/30 10:17:27;;;;;;;50.05;26.67;;;2.50;99.90;;;;;;4128154;28;20257;-59
2022/12/30 10:19:42;;;;;;;43.80;24.83;;;2.50;99.90;;;;;;4112581;28;20105;-60
2022/12/30 10:22:00;;;;;;;45.37;24.93;;;2.60;99.90;;;;;;4111905;28;20284;-63
2022/12/30 10:24:19;;;;;;;41.87;23.77;;;2.60;99.90;;;;;;4111629;28;20277;-60
2022/12/30 10:26:26;;;;;;;43.03;24.80;;;2.70;99.90;;;;;;4111367;28;20272;-61
2022/12/30 10:28:37;;;;;;;43.87;25.73;;;2.70;99.90;;;;;;4112849;28;20599;-64
2022/12/30 10:30:42;;;;;;;43.45;24.27;;;2.70;99.90;;;;;;4112110;28;20717;-62
2022/12/30 10:33:15;;;;;;;51.73;25.83;;;2.70;99.90;;;;;;4112582;28;20085;-59
2022/12/30 10:35:25;;;;;;;43.60;24.27;;;2.70;99.90;;;;;;4111339;28;20285;-65
2022/12/30 10:37:33;;;;;;;44.55;24.20;;;2.70;99.90;;;;;;4123324;28;20748;-63
2022/12/30 10:39:38;;;;;;;44.73;24.73;;;2.80;99.90;;;;;;4127584;28;20541;-60
2022/12/30 10:42:16;;;;;;;44.93;23.93;;;2.80;99.90;;;;;;4123606;28;20280;-59
2022/12/30 10:44:28;;;;;;;42.50;25.30;;;2.80;99.90;;;;;;4126044;28;20687;-62
2022/12/30 10:47:14;;;;;;;47.67;24.17;;;2.80;99.90;;;;;;4127813;28;20315;-60
2022/12/30 10:49:45;;;;;;;48.97;26.50;;;2.90;99.90;;;;;;4092095;28;20354;-61
2022/12/30 10:51:49;;;;;;;42.43;24.43;;;2.90;99.90;;;;;;4127008;28;20560;-62
2022/12/30 10:53:52;;;;;;;49.03;26.23;;;2.90;99.90;;;;;;4128662;28;20284;-62
2022/12/30 10:56:01;;;;;;;45.80;25.00;;;2.90;99.90;;;;;;4125234;28;20316;-62
2022/12/30 10:58:09;;;;;;;46.60;25.87;;;2.90;99.90;;;;;;4128778;28;20315;-64
2022/12/30 11:00:11;;;;;;;44.60;25.33;;;2.90;99.90;;;;;;4127162;28;20272;-64
2022/12/30 11:02:23;;;;;;;46.67;26.13;;;2.80;99.90;;;;;;4128017;28;20339;-64
2022/12/30 11:04:54;;;;;;;51.57;27.13;;;2.90;99.90;;;;;;4127620;28;20252;-64
2022/12/30 11:07:02;;;;;;;58.05;28.20;;;2.90;99.90;;;;;;4107487;28;20768;-64
2022/12/30 11:09:12;;;;;;;43.87;25.03;;;2.90;99.90;;;;;;4127468;28;20477;-65
2022/12/30 11:11:13;;;;;;;43.83;25.50;;;2.90;99.90;;;;;;4128042;28;20331;-65
2022/12/30 11:15:50;;;;;;;47.47;25.90;;;2.90;99.90;;;;;;4128255;28;20342;-59
2022/12/30 11:17:54;;;;;;;45.80;24.70;;;2.80;99.90;;;;;;4127071;28;20322;-65
2022/12/30 11:20:04;;;;;;;46.67;26.33;;;2.90;99.90;;;;;;4125923;28;20283;-59
2022/12/30 11:22:05;;;;;;;54.13;26.00;;;2.90;99.90;;;;;;4125931;28;20335;-62
2022/12/30 11:24:14;;;;;;;50.23;26.57;;;2.90;99.90;;;;;;4127734;28;20034;-60
2022/12/30 11:26:21;;;;;;;42.57;25.17;;;3.00;99.90;;;;;;4127087;28;20303;-62
2022/12/30 11:28:49;;;;;;;44.27;23.80;;;3.00;99.90;;;;;;4128301;28;20739;-59
2022/12/30 11:30:53;;;;;;;39.23;22.90;;;2.90;99.90;;;;;;4127051;28;20268;-61
2022/12/30 11:32:56;;;;;;;39.00;22.30;;;2.90;99.90;;;;;;4128344;28;20326;-66
2022/12/30 11:34:58;;;;;;;39.53;23.13;;;3.00;99.90;;;;;;4117871;28;20296;-60